Time;durP1;ratioP1;P1;durP2;ratioP2;P2;SDS_P1;SDS_P2;PMS_P1;PMS_P2;Temp;Humidity;BMP_temperature;BMP_pressure;BME280_temperature;BME280_humidity;BME280_pressure;Samples;Min_cycle;Max_cycle;Signal;HPM_P1;HPM_P2
2021/01/16 00:00:50;;;;;;;30.50;16.60;;;;;;;1.04;69.72;97590.69;5072482;28;20467;-67
2021/01/16 00:03:16;;;;;;;27.90;15.87;;;;;;;1.04;70.17;97593.25;5070765;28;20419;-67
2021/01/16 00:05:43;;;;;;;27.00;16.37;;;;;;;1.14;69.79;97585.00;5061309;28;20831;-69
2021/01/16 00:08:11;;;;;;;29.07;16.80;;;;;;;1.04;69.51;97584.69;5053948;28;20432;-68
2021/01/16 00:10:40;;;;;;;28.93;16.67;;;;;;;0.85;69.93;97583.09;5064078;28;20456;-68
2021/01/16 00:13:05;;;;;;;27.40;16.70;;;;;;;0.75;70.31;97582.78;5063848;28;20424;-67
2021/01/16 00:15:31;;;;;;;25.33;15.43;;;;;;;0.87;69.80;97580.44;5072529;28;21074;-68
2021/01/16 00:18:04;;;;;;;32.43;17.53;;;;;;;0.97;69.42;97581.59;5072161;28;20435;-68
2021/01/16 00:20:31;;;;;;;25.90;15.40;;;;;;;1.04;69.21;97579.53;5071996;28;20487;-70
2021/01/16 00:22:57;;;;;;;28.67;17.17;;;;;;;1.13;68.98;97570.47;5070917;28;20454;-70
2021/01/16 00:25:23;;;;;;;26.80;16.03;;;;;;;1.04;68.97;97576.94;5071208;28;20511;-69
2021/01/16 00:27:49;;;;;;;31.13;17.10;;;;;;;0.85;70.03;97582.28;5071527;28;20193;-69
2021/01/16 00:30:17;;;;;;;29.63;16.90;;;;;;;0.73;69.77;97569.13;5072108;28;20527;-69
2021/01/16 00:32:43;;;;;;;32.70;16.30;;;;;;;0.71;69.87;97581.25;5038073;28;20425;-70
2021/01/16 00:35:11;;;;;;;26.30;16.73;;;;;;;1.04;69.54;97567.44;5063275;28;20482;-70
2021/01/16 00:37:38;;;;;;;29.47;17.20;;;;;;;1.05;69.27;97569.09;5060420;28;20190;-71
2021/01/16 00:40:09;;;;;;;27.20;16.40;;;;;;;0.50;70.60;97570.31;5053443;28;20467;-69
2021/01/16 00:42:41;;;;;;;32.10;18.83;;;;;;;0.80;70.04;97579.09;5070411;28;20435;-68
2021/01/16 00:45:08;;;;;;;30.67;17.37;;;;;;;0.67;70.59;97569.44;5054841;28;20423;-71
2021/01/16 00:47:38;;;;;;;30.00;17.87;;;;;;;0.56;71.16;97571.75;5071951;28;20481;-69
2021/01/16 00:50:05;;;;;;;28.87;16.93;;;;;;;0.53;70.67;97577.06;5062412;28;20513;-68
2021/01/16 00:52:32;;;;;;;33.83;18.13;;;;;;;0.40;71.18;97572.53;5054281;28;20477;-67
2021/01/16 00:54:57;;;;;;;32.10;18.23;;;;;;;0.33;71.67;97576.34;5073784;28;20454;-69
2021/01/16 00:57:24;;;;;;;31.97;18.47;;;;;;;0.48;71.05;97576.47;5074426;28;20462;-68
2021/01/16 00:59:50;;;;;;;32.57;18.40;;;;;;;0.26;71.89;97580.16;5065076;28;20186;-69
2021/01/16 01:02:16;;;;;;;35.37;18.17;;;;;;;0.36;71.32;97571.03;5073120;28;20445;-70
2021/01/16 01:04:42;;;;;;;35.50;20.10;;;;;;;0.34;72.11;97578.03;5075209;28;20431;-69
2021/01/16 01:07:11;;;;;;;33.13;17.73;;;;;;;0.44;71.25;97575.81;5071327;28;20186;-69
2021/01/16 01:09:39;;;;;;;31.90;18.90;;;;;;;0.38;71.09;97584.66;5059374;28;20182;-70
2021/01/16 01:12:06;;;;;;;34.93;18.33;;;;;;;0.56;70.69;97582.06;5073979;28;20445;-70
2021/01/16 01:14:32;;;;;;;28.30;16.87;;;;;;;0.52;70.82;97581.41;5074515;28;20451;-68
2021/01/16 01:16:57;;;;;;;34.97;19.47;;;;;;;0.22;71.75;97583.81;5074767;28;20448;-68
2021/01/16 01:19:23;;;;;;;34.53;18.67;;;;;;;0.53;71.58;97589.94;5072300;28;20432;-70
2021/01/16 01:21:49;;;;;;;35.10;19.57;;;;;;;0.60;71.26;97588.72;5074122;28;20266;-69
2021/01/16 01:24:15;;;;;;;34.30;17.80;;;;;;;0.72;70.37;97582.94;5074365;28;20201;-70
2021/01/16 01:26:40;;;;;;;35.27;19.03;;;;;;;0.49;71.12;97578.97;5074365;28;20182;-68
2021/01/16 01:29:06;;;;;;;33.40;19.13;;;;;;;0.69;70.64;97574.53;5074174;28;20177;-69
2021/01/16 01:31:32;;;;;;;34.67;19.50;;;;;;;0.55;70.56;97577.81;5068026;28;20204;-68
2021/01/16 01:33:58;;;;;;;31.20;18.63;;;;;;;0.73;70.73;97583.75;5072800;28;20271;-68
2021/01/16 01:36:24;;;;;;;33.93;19.23;;;;;;;0.89;69.76;97583.75;5071971;28;20415;-68
2021/01/16 01:38:50;;;;;;;33.90;18.43;;;;;;;0.86;69.62;97584.75;5069902;28;20429;-68
2021/01/16 01:41:16;;;;;;;31.80;17.90;;;;;;;0.78;70.73;97586.94;5073674;28;20264;-69
2021/01/16 01:43:42;;;;;;;36.93;18.57;;;;;;;0.82;70.29;97574.69;5073616;28;20441;-69
2021/01/16 01:46:07;;;;;;;35.33;18.60;;;;;;;0.81;69.94;97579.03;5072615;28;20498;-70
2021/01/16 01:48:33;;;;;;;35.60;20.23;;;;;;;0.69;69.62;97580.50;5074132;28;20548;-69
2021/01/16 01:50:59;;;;;;;36.27;19.40;;;;;;;0.66;69.39;97588.41;5073387;28;20595;-69
2021/01/16 01:53:27;;;;;;;34.50;18.47;;;;;;;0.93;68.65;97587.84;5073289;28;20181;-70
2021/01/16 01:55:55;;;;;;;35.17;18.30;;;;;;;1.04;68.35;97584.69;5070241;28;20470;-68
2021/01/16 01:58:23;;;;;;;34.23;18.60;;;;;;;0.75;69.43;97595.66;5068574;28;20421;-69
2021/01/16 02:00:52;;;;;;;30.83;18.37;;;;;;;0.65;69.19;97591.06;5070887;28;20492;-69
2021/01/16 02:03:19;;;;;;;34.17;18.97;;;;;;;0.81;68.94;97591.09;5073375;28;20507;-69
2021/01/16 02:05:45;;;;;;;30.93;16.80;;;;;;;0.56;69.40;97588.06;5071453;28;20447;-69
2021/01/16 02:08:11;;;;;;;33.37;18.63;;;;;;;0.83;69.20;97584.09;5068748;28;20449;-70
2021/01/16 02:10:37;;;;;;;33.97;18.50;;;;;;;0.51;69.78;97581.44;5073244;28;20465;-69
2021/01/16 02:13:03;;;;;;;35.80;18.37;;;;;;;0.57;69.91;97578.56;5071794;28;20645;-68
2021/01/16 02:15:47;;;;;;;40.70;19.50;;;;;;;0.81;69.27;97585.91;5073623;28;20186;-69
2021/01/16 02:18:23;;;;;;;34.70;18.43;;;;;;;1.02;68.18;97584.75;5066473;28;20181;-69
2021/01/16 02:20:53;;;;;;;36.63;18.67;;;;;;;1.00;68.13;97584.03;5071769;28;20466;-69
2021/01/16 02:23:28;;;;;;;35.03;18.17;;;;;;;0.90;68.96;97581.09;5078802;28;20416;-70
2021/01/16 02:26:22;;;;;;;34.97;19.10;;;;;;;0.82;69.10;97574.69;5082359;28;20421;-69
2021/01/16 02:28:58;;;;;;;37.50;18.77;;;;;;;1.06;68.36;97570.78;5052814;28;20489;-70
2021/01/16 02:31:30;;;;;;;32.10;17.90;;;;;;;1.10;68.38;97565.44;5072184;28;20472;-68
2021/01/16 02:33:59;;;;;;;36.50;18.93;;;;;;;1.13;68.05;97565.28;5071805;28;20449;-69
2021/01/16 02:36:39;;;;;;;35.00;18.80;;;;;;;1.19;67.91;97560.63;5072862;28;20490;-71
2021/01/16 02:39:11;;;;;;;37.30;18.53;;;;;;;1.02;68.01;97566.69;5070116;28;20527;-69
2021/01/16 02:42:01;;;;;;;35.40;19.30;;;;;;;1.13;68.74;97560.94;5071915;28;21004;-68
2021/01/16 02:44:36;;;;;;;34.70;17.90;;;;;;;1.19;67.91;97570.09;5071012;28;20504;-69
2021/01/16 02:47:29;;;;;;;34.83;19.60;;;;;;;0.69;69.73;97567.59;5071628;28;20501;-69
2021/01/16 02:50:03;;;;;;;34.27;18.87;;;;;;;0.77;69.55;97570.59;5071394;28;20424;-69
2021/01/16 02:52:29;;;;;;;33.50;18.90;;;;;;;0.86;69.13;97568.47;5071465;28;20811;-71
2021/01/16 02:54:56;;;;;;;40.33;20.40;;;;;;;0.98;68.71;97567.78;5063998;28;20416;-69
2021/01/16 02:57:22;;;;;;;33.03;17.53;;;;;;;0.73;69.12;97566.53;5072561;28;20508;-67
2021/01/16 02:59:48;;;;;;;37.30;20.37;;;;;;;0.75;69.15;97569.88;5072380;28;20507;-69
2021/01/16 03:02:18;;;;;;;33.57;18.33;;;;;;;0.90;69.09;97573.38;5070666;28;20448;-67
2021/01/16 03:04:44;;;;;;;39.67;19.43;;;;;;;0.80;69.64;97573.94;5071118;28;20806;-70
2021/01/16 03:07:15;;;;;;;40.03;20.07;;;;;;;0.90;68.98;97570.78;5068408;28;20773;-69
2021/01/16 03:09:42;;;;;;;35.47;19.40;;;;;;;0.83;69.05;97573.78;5071662;28;20806;-71
2021/01/16 03:12:09;;;;;;;35.83;18.73;;;;;;;0.95;69.46;97575.69;5072056;28;20453;-68
2021/01/16 03:14:37;;;;;;;43.53;21.27;;;;;;;0.89;69.08;97574.28;5071217;28;20962;-69
2021/01/16 03:17:25;;;;;;;35.43;19.43;;;;;;;0.59;69.93;97567.25;5071438;28;20911;-68
2021/01/16 03:19:52;;;;;;;33.83;18.60;;;;;;;0.79;69.01;97569.69;5072232;28;20419;-70
2021/01/16 03:22:20;;;;;;;33.80;18.60;;;;;;;1.06;68.77;97559.63;5071226;28;20941;-68
2021/01/16 03:24:48;;;;;;;41.20;19.27;;;;;;;0.94;68.66;97568.88;5071615;28;20502;-68
2021/01/16 03:27:13;;;;;;;36.40;20.00;;;;;;;1.01;68.45;97565.00;5069905;28;20412;-71
2021/01/16 03:29:40;;;;;;;42.70;20.87;;;;;;;1.29;68.28;97563.50;5070935;28;20800;-67
2021/01/16 03:32:07;;;;;;;42.67;20.63;;;;;;;1.15;68.39;97555.69;5071304;28;20213;-69
2021/01/16 03:34:33;;;;;;;38.73;21.10;;;;;;;0.84;69.17;97570.28;5072084;28;20447;-69
2021/01/16 03:36:59;;;;;;;38.20;19.17;;;;;;;1.03;68.98;97559.78;5066978;28;20422;-68
2021/01/16 03:39:24;;;;;;;40.03;20.97;;;;;;;0.90;69.34;97567.34;5071263;28;20478;-70
2021/01/16 03:41:50;;;;;;;45.83;20.83;;;;;;;1.27;68.07;97562.75;5070861;28;20959;-68
2021/01/16 03:44:16;;;;;;;40.87;21.40;;;;;;;1.29;67.90;97562.69;5071743;28;20197;-69
2021/01/16 03:46:42;;;;;;;37.70;19.90;;;;;;;1.42;66.74;97557.66;5071599;28;20228;-67
2021/01/16 03:49:07;;;;;;;39.57;20.73;;;;;;;1.35;67.08;97554.56;5070670;28;20206;-69
2021/01/16 03:51:33;;;;;;;37.03;20.00;;;;;;;1.00;68.52;97558.22;5072138;28;20201;-69
2021/01/16 03:53:59;;;;;;;41.30;19.70;;;;;;;1.09;68.64;97550.88;5070222;28;20182;-69
2021/01/16 03:56:25;;;;;;;35.57;19.60;;;;;;;0.89;69.05;97563.09;5066313;28;20205;-69
2021/01/16 03:58:50;;;;;;;34.93;20.70;;;;;;;0.88;69.60;97561.47;5068865;28;20186;-70
2021/01/16 04:01:16;;;;;;;44.83;21.40;;;;;;;0.64;69.54;97567.00;5070484;28;20572;-68
2021/01/16 04:03:42;;;;;;;43.50;23.23;;;;;;;0.55;70.74;97567.50;5070667;28;20201;-68
2021/01/16 04:06:14;;;;;;;54.47;20.93;;;;;;;0.74;70.10;97572.50;5071628;28;20235;-69
2021/01/16 04:08:40;;;;;;;43.00;20.97;;;;;;;0.71;69.92;97565.78;5051808;28;20269;-69
2021/01/16 04:11:05;;;;;;;43.07;22.47;;;;;;;0.87;69.78;97564.97;5071294;28;20487;-67
2021/01/16 04:13:31;;;;;;;44.70;22.30;;;;;;;0.73;69.79;97569.13;5071494;28;20186;-68
2021/01/16 04:15:56;;;;;;;41.23;22.17;;;;;;;0.75;69.83;97575.03;5064393;28;20190;-69
2021/01/16 04:18:22;;;;;;;42.97;22.40;;;;;;;0.66;70.54;97577.25;5063713;28;20186;-69
2021/01/16 04:20:48;;;;;;;42.00;21.43;;;;;;;0.95;69.56;97570.53;5064734;28;20202;-69
2021/01/16 04:23:14;;;;;;;42.27;20.77;;;;;;;1.31;68.82;97573.78;5059384;28;20273;-70
2021/01/16 04:25:39;;;;;;;45.53;21.60;;;;;;;1.13;68.94;97575.63;5040253;28;20222;-70
2021/01/16 04:28:05;;;;;;;45.63;23.00;;;;;;;0.83;68.98;97574.59;5059485;28;20178;-67
2021/01/16 04:30:31;;;;;;;39.33;20.70;;;;;;;0.90;69.18;97580.25;5055447;28;20356;-68
2021/01/16 04:32:57;;;;;;;42.30;21.93;;;;;;;0.84;69.24;97575.44;5055004;28;20178;-69
2021/01/16 04:35:22;;;;;;;40.20;21.87;;;;;;;0.97;69.18;97576.44;5055364;28;20246;-69
2021/01/16 04:37:48;;;;;;;46.33;22.23;;;;;;;1.20;68.47;97570.00;5054904;28;20179;-70
2021/01/16 04:40:14;;;;;;;41.53;21.63;;;;;;;1.11;68.38;97569.69;5054416;28;20297;-68
2021/01/16 04:42:43;;;;;;;39.77;20.10;;;;;;;0.97;68.85;97570.44;5055479;28;20195;-68
2021/01/16 04:45:11;;;;;;;42.80;20.80;;;;;;;1.04;69.33;97571.78;5046942;28;20418;-69
2021/01/16 04:47:37;;;;;;;35.97;19.50;;;;;;;1.37;68.22;97563.94;5055600;28;20432;-70
2021/01/16 04:50:03;;;;;;;45.57;20.90;;;;;;;1.21;67.78;97563.09;5055127;28;20425;-67
2021/01/16 04:52:29;;;;;;;40.47;20.97;;;;;;;1.30;67.83;97561.78;5055587;28;21010;-68
2021/01/16 04:54:55;;;;;;;46.43;21.57;;;;;;;1.19;67.54;97557.19;5053140;28;20465;-71
2021/01/16 04:57:27;;;;;;;40.70;21.33;;;;;;;1.16;67.76;97560.78;5061277;28;20421;-69
2021/01/16 04:59:54;;;;;;;39.00;20.67;;;;;;;1.28;67.49;97555.84;5056561;28;20504;-69
2021/01/16 05:02:22;;;;;;;38.70;20.20;;;;;;;0.94;68.72;97562.88;5061220;28;20448;-71
2021/01/16 05:04:49;;;;;;;38.27;19.77;;;;;;;1.00;67.75;97555.63;5064879;28;20801;-69
2021/01/16 05:07:18;;;;;;;39.13;20.70;;;;;;;0.94;68.60;97561.13;5064150;28;20421;-69
2021/01/16 05:09:45;;;;;;;43.10;21.90;;;;;;;1.07;68.57;97550.97;5065678;28;20475;-70
2021/01/16 05:12:32;;;;;;;38.07;20.63;;;;;;;0.78;68.89;97553.38;5065350;28;20509;-68
2021/01/16 05:15:08;;;;;;;44.90;21.27;;;;;;;0.90;68.61;97557.03;5058378;28;20423;-70
2021/01/16 05:17:41;;;;;;;41.53;20.67;;;;;;;1.17;67.89;97552.13;5060700;28;20482;-69
2021/01/16 05:20:11;;;;;;;39.40;20.63;;;;;;;0.80;68.70;97555.88;5056841;28;20413;-67
2021/01/16 05:22:36;;;;;;;41.47;21.60;;;;;;;1.12;68.33;97546.38;5056320;28;20420;-70
2021/01/16 05:25:05;;;;;;;41.03;21.00;;;;;;;0.96;68.48;97548.97;5049621;28;20492;-69
2021/01/16 05:27:36;;;;;;;37.07;20.63;;;;;;;1.09;68.34;97548.28;5067873;28;20596;-70
2021/01/16 05:30:09;;;;;;;40.73;21.00;;;;;;;1.22;67.32;97549.28;5066341;28;20938;-67
2021/01/16 05:32:35;;;;;;;43.47;21.57;;;;;;;1.17;67.88;97552.13;5058790;28;20418;-69
2021/01/16 05:35:14;;;;;;;39.97;20.47;;;;;;;1.14;67.77;97551.44;5055014;28;20452;-69
2021/01/16 05:37:45;;;;;;;36.07;19.30;;;;;;;0.98;68.21;97562.63;5054469;28;20421;-70
2021/01/16 05:40:11;;;;;;;39.77;21.60;;;;;;;1.28;67.44;97556.66;5060835;28;20493;-68
2021/01/16 05:42:38;;;;;;;41.53;21.40;;;;;;;1.05;67.46;97556.19;5054075;28;20437;-69
2021/01/16 05:45:08;;;;;;;35.10;20.50;;;;;;;1.13;68.23;97555.78;5054938;28;20460;-68
2021/01/16 05:47:35;;;;;;;38.50;20.90;;;;;;;0.82;68.63;97566.94;5054617;28;20815;-69
2021/01/16 05:50:02;;;;;;;43.23;20.23;;;;;;;0.91;69.26;97566.44;5053349;28;20430;-70
2021/01/16 05:52:29;;;;;;;39.10;20.43;;;;;;;1.00;68.58;97563.38;5053230;28;20475;-69
2021/01/16 05:55:01;;;;;;;40.23;19.87;;;;;;;1.00;68.21;97559.94;5049081;28;20445;-70
2021/01/16 05:57:27;;;;;;;41.23;21.10;;;;;;;0.55;69.02;97559.75;5060150;28;20425;-72
2021/01/16 06:00:00;;;;;;;41.40;21.77;;;;;;;0.97;68.48;97552.38;5055322;28;20445;-69
2021/01/16 06:02:31;;;;;;;36.03;19.40;;;;;;;0.95;68.41;97565.38;5053735;28;20601;-68
2021/01/16 06:04:57;;;;;;;42.40;21.57;;;;;;;1.18;68.16;97550.34;5052174;28;20436;-71
2021/01/16 06:07:25;;;;;;;45.73;20.63;;;;;;;1.10;68.11;97545.63;5054204;28;20485;-68
2021/01/16 06:09:52;;;;;;;37.33;20.03;;;;;;;1.03;67.90;97544.31;5053233;28;20482;-68
2021/01/16 06:12:22;;;;;;;46.77;23.70;;;;;;;1.13;67.46;97544.63;5058032;28;20502;-67
2021/01/16 06:14:48;;;;;;;43.60;21.70;;;;;;;0.72;67.58;97546.81;5056731;28;20425;-69
2021/01/16 06:17:16;;;;;;;39.10;19.83;;;;;;;0.79;68.56;97551.63;5052094;28;20460;-67
2021/01/16 06:19:47;;;;;;;39.87;21.00;;;;;;;1.04;68.31;97544.22;5053304;28;20465;-69
2021/01/16 06:22:14;;;;;;;36.47;20.70;;;;;;;1.00;67.88;97535.00;5045784;28;20465;-69
2021/01/16 06:24:44;;;;;;;37.30;20.73;;;;;;;0.72;68.63;97546.81;5046295;28;20441;-69
2021/01/16 06:27:23;;;;;;;41.47;21.20;;;;;;;1.04;67.96;97538.22;5059503;28;20936;-68
2021/01/16 06:30:00;;;;;;;35.03;18.97;;;;;;;1.01;67.82;97546.94;5053972;28;20999;-68
2021/01/16 06:32:27;;;;;;;38.93;21.20;;;;;;;1.06;67.11;97546.72;5052297;28;20461;-68
2021/01/16 06:35:06;;;;;;;39.30;20.03;;;;;;;0.91;67.82;97540.63;5071167;28;20429;-70
2021/01/16 06:37:32;;;;;;;41.83;20.30;;;;;;;0.82;67.94;97538.56;5073877;28;20420;-69
2021/01/16 06:39:58;;;;;;;37.07;18.57;;;;;;;1.00;67.59;97532.41;5073467;28;20475;-68
2021/01/16 06:42:28;;;;;;;38.90;20.90;;;;;;;1.10;67.56;97534.47;5072871;28;20926;-69
2021/01/16 06:45:13;;;;;;;39.57;20.83;;;;;;;1.12;67.10;97532.63;5073280;28;20478;-69
2021/01/16 06:47:39;;;;;;;36.23;19.23;;;;;;;1.02;67.05;97534.88;5073347;28;20895;-69
2021/01/16 06:50:07;;;;;;;37.67;20.13;;;;;;;0.89;67.47;97537.28;5064495;28;20470;-71
2021/01/16 06:52:35;;;;;;;38.40;20.47;;;;;;;1.11;67.30;97531.78;5073582;28;20182;-68
2021/01/16 06:55:05;;;;;;;41.23;21.33;;;;;;;0.77;68.06;97544.78;5071086;28;20515;-68
2021/01/16 06:57:34;;;;;;;38.63;20.57;;;;;;;0.69;68.27;97541.78;5068596;28;20420;-69
2021/01/16 07:00:10;;;;;;;36.57;19.80;;;;;;;1.30;66.61;97530.78;5073971;28;20511;-69
2021/01/16 07:02:37;;;;;;;37.10;20.60;;;;;;;1.02;67.17;97527.97;5059965;28;20421;-68
2021/01/16 07:05:06;;;;;;;37.93;18.97;;;;;;;1.18;66.65;97527.13;5071709;28;20425;-68
2021/01/16 07:07:39;;;;;;;38.00;19.83;;;;;;;1.42;65.92;97522.34;5071982;28;20433;-68
2021/01/16 07:10:13;;;;;;;40.23;20.83;;;;;;;1.63;65.71;97519.44;5071779;28;20438;-69
2021/01/16 07:12:50;;;;;;;42.77;20.80;;;;;;;1.12;66.96;97520.56;5071538;28;20432;-69
2021/01/16 07:15:17;;;;;;;42.07;20.90;;;;;;;1.05;67.27;97538.13;5071801;28;20423;-69
2021/01/16 07:17:44;;;;;;;39.10;20.23;;;;;;;1.27;66.12;97541.28;5071705;28;20480;-67
2021/01/16 07:20:10;;;;;;;38.17;21.77;;;;;;;0.59;68.19;97545.78;5072867;28;20470;-68
2021/01/16 07:22:41;;;;;;;38.47;19.33;;;;;;;1.00;67.69;97540.16;5073080;28;20458;-68
2021/01/16 07:25:08;;;;;;;38.40;20.83;;;;;;;1.24;66.87;97539.69;5073245;28;20424;-69
2021/01/16 07:27:35;;;;;;;39.90;19.53;;;;;;;1.30;66.99;97530.78;5063693;28;20426;-68
2021/01/16 07:30:05;;;;;;;40.13;20.07;;;;;;;1.49;65.94;97535.75;5068601;28;20444;-70
2021/01/16 07:32:42;;;;;;;38.50;21.07;;;;;;;1.15;66.69;97532.44;5057573;28;20523;-67
2021/01/16 07:35:25;;;;;;;37.30;20.43;;;;;;;1.45;66.23;97540.22;5073850;28;20940;-72
2021/01/16 07:37:52;;;;;;;37.40;20.33;;;;;;;1.12;66.58;97540.38;5072331;28;20942;-68
2021/01/16 07:40:20;;;;;;;34.47;18.90;;;;;;;1.36;66.61;97546.75;5065425;28;20416;-70
2021/01/16 07:42:48;;;;;;;36.73;19.80;;;;;;;1.20;66.18;97541.59;5015436;28;20452;-69
2021/01/16 07:45:39;;;;;;;37.77;19.30;;;;;;;1.51;66.00;97539.88;5054887;28;20880;-72
2021/01/16 07:48:06;;;;;;;36.90;19.37;;;;;;;1.52;65.05;97551.03;5072585;28;20419;-69
2021/01/16 07:50:36;;;;;;;33.47;19.20;;;;;;;1.51;65.35;97554.56;5064111;28;20447;-68
2021/01/16 07:53:08;;;;;;;41.23;21.07;;;;;;;1.10;66.32;97544.81;5072345;28;20425;-67
2021/01/16 07:55:36;;;;;;;36.60;19.00;;;;;;;1.17;66.91;97551.28;5071940;28;20930;-69
2021/01/16 07:58:09;;;;;;;36.13;19.60;;;;;;;1.49;65.75;97557.22;5072103;28;20421;-68
2021/01/16 08:00:37;;;;;;;40.53;20.07;;;;;;;1.13;66.41;97552.38;5065219;28;20984;-69
2021/01/16 08:03:17;;;;;;;39.67;21.50;;;;;;;1.07;66.87;97550.97;5052253;28;20497;-66
2021/01/16 08:06:06;;;;;;;38.97;20.30;;;;;;;1.03;67.03;97547.69;5067108;28;20923;-68
2021/01/16 08:08:54;;;;;;;34.73;19.43;;;;;;;0.96;66.74;97542.94;5062021;28;20966;-68
2021/01/16 08:11:29;;;;;;;39.80;20.73;;;;;;;0.99;67.07;97546.22;5059735;28;20436;-71
2021/01/16 08:14:15;;;;;;;37.97;20.03;;;;;;;1.31;66.05;97543.59;5072389;28;20439;-70
2021/01/16 08:16:41;;;;;;;36.30;20.37;;;;;;;1.20;66.53;97540.78;5070769;28;20420;-67
2021/01/16 08:19:10;;;;;;;39.93;20.70;;;;;;;1.42;65.79;97539.56;5073154;28;20607;-68
2021/01/16 08:21:36;;;;;;;34.57;18.80;;;;;;;1.35;66.20;97529.59;5072757;28;20467;-71
2021/01/16 08:24:05;;;;;;;37.27;20.67;;;;;;;1.39;66.04;97535.41;5054915;28;20436;-67
2021/01/16 08:26:32;;;;;;;38.60;20.10;;;;;;;1.40;65.25;97528.50;5068066;28;20429;-70
2021/01/16 08:28:59;;;;;;;32.47;18.00;;;;;;;1.09;66.42;97531.03;5069248;28;20993;-69
2021/01/16 08:31:28;;;;;;;33.73;18.10;;;;;;;1.17;66.95;97528.88;5054583;28;20437;-69
2021/01/16 08:33:54;;;;;;;34.93;18.80;;;;;;;1.35;65.97;97529.59;5056942;28;20515;-69
2021/01/16 08:36:21;;;;;;;35.47;19.20;;;;;;;0.67;68.35;97535.88;5070955;28;20484;-70
2021/01/16 08:38:48;;;;;;;36.17;19.27;;;;;;;1.36;67.37;97526.09;5072014;28;20424;-69
2021/01/16 08:41:23;;;;;;;36.73;18.83;;;;;;;1.76;66.22;97522.97;5071641;28;20459;-68
2021/01/16 08:43:54;;;;;;;32.40;18.13;;;;;;;1.85;65.37;97526.78;5070965;28;20435;-67
2021/01/16 08:46:34;;;;;;;35.23;19.63;;;;;;;1.69;65.28;97519.91;5070705;28;20436;-70
2021/01/16 08:49:13;;;;;;;31.63;17.33;;;;;;;1.69;65.13;97517.31;5073066;28;20982;-69
2021/01/16 08:51:44;;;;;;;31.77;18.40;;;;;;;0.90;66.52;97515.72;5071307;28;20447;-67
2021/01/16 08:54:10;;;;;;;30.23;17.00;;;;;;;1.66;64.65;97514.91;5074135;28;20479;-68
2021/01/16 08:56:36;;;;;;;29.23;17.07;;;;;;;1.97;63.30;97520.03;5072524;28;20428;-67
2021/01/16 08:59:23;;;;;;;32.67;18.33;;;;;;;2.13;62.58;97519.97;5072259;28;20183;-67
2021/01/16 09:01:51;;;;;;;31.83;17.37;;;;;;;2.17;61.85;97518.84;5070761;28;20218;-68
2021/01/16 09:04:18;;;;;;;32.47;16.57;;;;;;;1.81;62.50;97520.13;5056675;28;20530;-68
2021/01/16 09:06:44;;;;;;;35.87;18.40;;;;;;;2.08;62.19;97509.06;5070711;28;20416;-68
2021/01/16 09:09:11;;;;;;;27.47;16.20;;;;;;;2.05;61.32;97523.03;5072112;28;20438;-68
2021/01/16 09:11:37;;;;;;;25.33;15.33;;;;;;;1.70;62.71;97523.34;5072279;28;20648;-67
2021/01/16 09:14:03;;;;;;;27.57;16.20;;;;;;;1.64;62.42;97527.09;5074129;28;20424;-68
2021/01/16 09:16:37;;;;;;;25.60;16.33;;;;;;;1.79;62.22;97527.13;5067699;28;20425;-68
2021/01/16 09:19:03;;;;;;;26.50;15.90;;;;;;;1.86;61.18;97528.44;5074186;28;20435;-67
2021/01/16 09:21:29;;;;;;;26.10;15.33;;;;;;;2.06;61.20;97535.03;5075289;28;20552;-70
2021/01/16 09:23:56;;;;;;;28.40;14.50;;;;;;;1.66;60.75;97533.00;5065498;28;20473;-65
2021/01/16 09:26:23;;;;;;;27.23;14.80;;;;;;;1.55;61.39;97543.13;5066102;28;20425;-69
2021/01/16 09:28:50;;;;;;;23.50;14.70;;;;;;;1.67;61.94;97537.25;5066073;28;20417;-68
2021/01/16 09:31:34;;;;;;;27.10;15.13;;;;;;;1.62;62.61;97548.78;5065171;28;20979;-67
2021/01/16 09:34:12;;;;;;;21.53;13.60;;;;;;;1.20;63.04;97545.94;5060267;28;20501;-68
2021/01/16 09:36:41;;;;;;;24.40;14.20;;;;;;;1.31;62.27;97553.09;5067876;28;20504;-69
2021/01/16 09:39:18;;;;;;;19.67;13.00;;;;;;;1.48;60.56;97550.38;5073243;28;20420;-68
2021/01/16 09:41:45;;;;;;;20.90;13.60;;;;;;;1.27;61.14;97552.41;5074440;28;20605;-69
2021/01/16 09:44:11;;;;;;;20.60;12.20;;;;;;;1.30;61.02;97547.09;5073803;28;20985;-68
2021/01/16 09:46:38;;;;;;;22.53;13.50;;;;;;;1.02;62.01;97542.63;5067372;28;20428;-68
2021/01/16 09:49:06;;;;;;;19.77;12.70;;;;;;;1.14;61.26;97546.28;5073089;28;20435;-67
2021/01/16 09:51:34;;;;;;;30.60;15.30;;;;;;;1.36;60.91;97549.34;5074756;28;20443;-68
2021/01/16 09:54:20;;;;;;;25.83;15.03;;;;;;;1.19;61.18;97537.38;5073931;28;20946;-68
2021/01/16 09:56:47;;;;;;;23.33;14.00;;;;;;;1.42;60.26;97535.25;5074379;28;20444;-70
2021/01/16 09:59:23;;;;;;;21.93;12.90;;;;;;;1.63;59.46;97535.78;5073946;28;20424;-70
2021/01/16 10:02:09;;;;;;;21.27;12.20;;;;;;;1.90;58.90;97529.91;5073404;28;20474;-67
2021/01/16 10:04:45;;;;;;;18.77;11.87;;;;;;;1.56;58.79;97531.06;5064083;28;20427;-69
2021/01/16 10:07:12;;;;;;;18.90;12.17;;;;;;;1.72;58.29;97531.00;5058471;28;20528;-68
2021/01/16 10:09:42;;;;;;;19.27;12.10;;;;;;;1.68;59.31;97530.34;5073083;28;20431;-69
2021/01/16 10:12:11;;;;;;;18.93;12.13;;;;;;;1.46;58.81;97521.22;5073504;28;20778;-69
2021/01/16 10:14:36;;;;;;;16.90;11.50;;;;;;;1.76;58.21;97520.38;5064088;28;20431;-66
2021/01/16 10:17:10;;;;;;;18.30;11.43;;;;;;;1.41;58.80;97509.50;5063440;28;20790;-65
2021/01/16 10:19:37;;;;;;;22.20;12.07;;;;;;;1.68;58.24;97505.31;5072086;28;20190;-68
2021/01/16 10:22:03;;;;;;;18.30;11.90;;;;;;;1.80;57.55;97500.34;5073577;28;21076;-67
2021/01/16 10:24:29;;;;;;;20.70;12.20;;;;;;;1.64;57.86;97493.50;5069769;28;20456;-67
2021/01/16 10:26:56;;;;;;;18.93;12.10;;;;;;;1.46;58.79;97489.41;5072000;28;20415;-67
2021/01/16 10:29:37;;;;;;;19.63;11.07;;;;;;;1.88;57.02;97485.25;5074320;28;20507;-67
2021/01/16 10:32:38;;;;;;;16.57;10.27;;;;;;;1.40;56.89;97469.94;5062519;28;20433;-69
2021/01/16 10:35:04;;;;;;;16.60;10.63;;;;;;;1.68;57.11;97479.47;5089639;28;20436;-68
2021/01/16 10:37:40;;;;;;;16.70;10.30;;;;;;;1.98;55.84;97470.00;5092190;28;20424;-70
2021/01/16 10:40:06;;;;;;;16.73;10.30;;;;;;;1.96;56.14;97461.50;5082890;28;20455;-70
2021/01/16 10:42:47;;;;;;;16.33;10.07;;;;;;;2.12;55.14;97456.25;5089361;28;20444;-68
2021/01/16 10:45:14;;;;;;;15.40;10.63;;;;;;;2.19;54.51;97454.13;5075644;28;20419;-68
2021/01/16 10:47:42;;;;;;;15.87;10.27;;;;;;;2.08;54.82;97444.41;5082973;28;20436;-68
2021/01/16 10:50:13;;;;;;;16.00;10.13;;;;;;;1.84;55.24;97447.56;5073911;28;20526;-67
2021/01/16 10:52:40;;;;;;;16.73;10.63;;;;;;;2.05;55.07;97444.59;5090944;28;20416;-68
2021/01/16 10:55:08;;;;;;;15.53;9.67;;;;;;;1.77;55.19;97441.06;5089511;28;20780;-69
2021/01/16 10:57:47;;;;;;;14.67;10.10;;;;;;;2.35;54.71;97434.13;5090923;28;20434;-67
2021/01/16 11:00:18;;;;;;;14.83;9.80;;;;;;;2.06;54.34;97431.59;5074430;28;20942;-68
2021/01/16 11:02:48;;;;;;;16.37;10.17;;;;;;;1.90;54.25;97431.66;5077816;28;20422;-69
2021/01/16 11:05:16;;;;;;;13.20;8.73;;;;;;;1.79;53.64;97434.91;5097707;28;20423;-69
2021/01/16 11:07:49;;;;;;;12.33;8.60;;;;;;;1.91;53.85;97433.34;5097707;28;20927;-70
2021/01/16 11:10:32;;;;;;;11.73;7.40;;;;;;;1.89;53.33;97424.84;5048401;28;20421;-67
2021/01/16 11:13:22;;;;;;;14.43;8.57;;;;;;;2.35;53.00;97425.56;5064198;28;20438;-68
2021/01/16 11:15:53;;;;;;;11.80;8.77;;;;;;;2.17;52.76;97423.16;5077061;28;20457;-69
2021/01/16 11:18:30;;;;;;;15.37;8.73;;;;;;;2.28;52.62;97422.50;5068736;28;20417;-70
2021/01/16 11:20:59;;;;;;;13.57;9.00;;;;;;;2.44;52.06;97415.47;5066875;28;20460;-69
2021/01/16 11:23:34;;;;;;;15.33;9.27;;;;;;;2.80;50.92;97420.97;5066832;28;20416;-67
2021/01/16 11:26:07;;;;;;;13.70;8.80;;;;;;;2.46;51.72;97413.59;5063582;28;20425;-69
2021/01/16 11:28:53;;;;;;;15.40;9.67;;;;;;;3.08;50.78;97408.84;5072654;28;20424;-68
2021/01/16 11:31:36;;;;;;;10.73;7.57;;;;;;;2.45;50.23;97406.78;5066567;28;20433;-68
2021/01/16 11:34:18;;;;;;;7.20;5.63;;;;;;;2.05;49.02;97392.88;5064668;28;20413;-68
2021/01/16 11:37:02;;;;;;;8.23;6.03;;;;;;;2.18;48.58;97395.56;5063802;28;20412;-69
2021/01/16 11:39:52;;;;;;;13.23;7.43;;;;;;;2.32;49.98;97392.09;5072936;28;20421;-70